sensor_id;sensor_type;location;lat;lon;timestamp;pressure;altitude;pressure_sealevel;temperature;humidity
39301;BME280;25019;42.626;23.380;2023-02-12T00:00:06;95342.59;;;-0.23;46.80
39301;BME280;25019;42.626;23.380;2023-02-12T00:02:40;95353.56;;;-0.19;47.86
39301;BME280;25019;42.626;23.380;2023-02-12T00:05:06;95350.28;;;-0.21;48.26
39301;BME280;25019;42.626;23.380;2023-02-12T00:07:32;95361.22;;;-0.18;48.02
39301;BME280;25019;42.626;23.380;2023-02-12T00:09:57;95359.47;;;-0.17;47.13
39301;BME280;25019;42.626;23.380;2023-02-12T00:12:23;95233.50;;;-0.97;47.42
39301;BME280;25019;42.626;23.380;2023-02-12T00:14:49;95327.88;;;-0.40;47.14
39301;BME280;25019;42.626;23.380;2023-02-12T00:17:14;95355.53;;;-0.21;47.80
39301;BME280;25019;42.626;23.380;2023-02-12T00:19:40;95299.53;;;-0.62;47.12
39301;BME280;25019;42.626;23.380;2023-02-12T00:22:05;95355.53;;;-0.21;47.22
39301;BME280;25019;42.626;23.380;2023-02-12T00:24:31;95355.00;;;-0.25;47.04
39301;BME280;25019;42.626;23.380;2023-02-12T00:26:57;95356.09;;;-0.36;47.11
39301;BME280;25019;42.626;23.380;2023-02-12T00:29:22;95322.78;;;-0.50;47.25
39301;BME280;25019;42.626;23.380;2023-02-12T00:31:48;95322.59;;;-0.49;46.90
39301;BME280;25019;42.626;23.380;2023-02-12T00:34:14;95352.91;;;-0.21;46.77
39301;BME280;25019;42.626;23.380;2023-02-12T00:36:40;95320.31;;;-0.52;46.26
39301;BME280;25019;42.626;23.380;2023-02-12T00:39:05;95352.59;;;-0.18;46.24
39301;BME280;25019;42.626;23.380;2023-02-12T00:41:31;95356.19;;;-0.19;46.22
39301;BME280;25019;42.626;23.380;2023-02-12T00:43:57;95345.56;;;-0.18;46.98
39301;BME280;25019;42.626;23.380;2023-02-12T00:46:22;95344.09;;;-0.20;46.19
39301;BME280;25019;42.626;23.380;2023-02-12T00:48:48;95224.09;;;-0.98;46.62
39301;BME280;25019;42.626;23.380;2023-02-12T00:51:17;95311.38;;;-0.41;46.84
39301;BME280;25019;42.626;23.380;2023-02-12T00:53:43;95211.53;;;-0.94;46.53
39301;BME280;25019;42.626;23.380;2023-02-12T00:56:08;95256.78;;;-0.69;46.77
39301;BME280;25019;42.626;23.380;2023-02-12T00:58:34;95338.34;;;-0.24;46.25
39301;BME280;25019;42.626;23.380;2023-02-12T01:01:00;95330.53;;;-0.24;47.04
39301;BME280;25019;42.626;23.380;2023-02-12T01:03:26;95243.09;;;-0.71;47.06
39301;BME280;25019;42.626;23.380;2023-02-12T01:05:52;95310.63;;;-0.25;47.50
39301;BME280;25019;42.626;23.380;2023-02-12T01:08:19;95244.41;;;-0.67;46.97
39301;BME280;25019;42.626;23.380;2023-02-12T01:10:53;95313.75;;;-0.21;46.20
39301;BME280;25019;42.626;23.380;2023-02-12T01:13:19;95282.69;;;-0.33;46.39
39301;BME280;25019;42.626;23.380;2023-02-12T01:15:45;95316.84;;;-0.18;45.86
39301;BME280;25019;42.626;23.380;2023-02-12T01:18:11;95227.78;;;-0.74;46.70
39301;BME280;25019;42.626;23.380;2023-02-12T01:20:38;95325.81;;;-0.20;46.56
39301;BME280;25019;42.626;23.380;2023-02-12T01:23:04;95331.88;;;-0.11;47.13
39301;BME280;25019;42.626;23.380;2023-02-12T01:25:31;95266.16;;;-0.50;46.61
39301;BME280;25019;42.626;23.380;2023-02-12T01:27:56;95339.56;;;-0.02;47.10
39301;BME280;25019;42.626;23.380;2023-02-12T01:30:22;95318.16;;;-0.13;47.07
39301;BME280;25019;42.626;23.380;2023-02-12T01:32:50;95286.13;;;-0.32;47.00
39301;BME280;25019;42.626;23.380;2023-02-12T01:35:16;95331.41;;;-0.07;47.72
39301;BME280;25019;42.626;23.380;2023-02-12T01:37:41;95325.50;;;-0.09;47.18
39301;BME280;25019;42.626;23.380;2023-02-12T01:40:08;95260.47;;;-0.45;47.06
39301;BME280;25019;42.626;23.380;2023-02-12T01:42:34;95142.69;;;-1.18;47.12
39301;BME280;25019;42.626;23.380;2023-02-12T01:47:39;95296.97;;;-0.10;47.42
39301;BME280;25019;42.626;23.380;2023-02-12T01:50:07;95244.47;;;-0.50;47.72
39301;BME280;25019;42.626;23.380;2023-02-12T01:52:35;95296.28;;;-0.21;47.65
39301;BME280;25019;42.626;23.380;2023-02-12T01:55:05;95289.28;;;-0.20;47.96
39301;BME280;25019;42.626;23.380;2023-02-12T01:57:34;95276.03;;;-0.19;48.12
39301;BME280;25019;42.626;23.380;2023-02-12T02:00:04;95285.03;;;-0.21;47.47
39301;BME280;25019;42.626;23.380;2023-02-12T02:02:41;95229.63;;;-0.50;48.67
39301;BME280;25019;42.626;23.380;2023-02-12T02:05:07;95272.09;;;-0.23;48.15
39301;BME280;25019;42.626;23.380;2023-02-12T02:07:33;95224.38;;;-0.66;48.19
39301;BME280;25019;42.626;23.380;2023-02-12T02:09:59;95284.72;;;-0.18;48.29
39301;BME280;25019;42.626;23.380;2023-02-12T02:12:27;95284.03;;;-0.20;48.71
39301;BME280;25019;42.626;23.380;2023-02-12T02:15:15;95270.00;;;-0.27;49.15
39301;BME280;25019;42.626;23.380;2023-02-12T02:17:49;95197.41;;;-0.83;48.90
39301;BME280;25019;42.626;23.380;2023-02-12T02:31:47;95191.66;;;-0.95;50.39
39301;BME280;25019;42.626;23.380;2023-02-12T02:34:39;95248.84;;;-0.59;50.53
39301;BME280;25019;42.626;23.380;2023-02-12T02:37:47;95260.13;;;-0.50;51.12
39301;BME280;25019;42.626;23.380;2023-02-12T02:40:22;95269.28;;;-0.38;50.51
39301;BME280;25019;42.626;23.380;2023-02-12T02:43:01;95265.56;;;-0.35;51.38
39301;BME280;25019;42.626;23.380;2023-02-12T02:45:42;95251.50;;;-0.42;50.66
39301;BME280;25019;42.626;23.380;2023-02-12T02:48:26;95273.53;;;-0.37;51.52
39301;BME280;25019;42.626;23.380;2023-02-12T02:51:15;95287.28;;;-0.26;51.14
39301;BME280;25019;42.626;23.380;2023-02-12T02:53:53;95295.78;;;-0.24;51.04
39301;BME280;25019;42.626;23.380;2023-02-12T02:56:23;95252.13;;;-0.49;51.72
39301;BME280;25019;42.626;23.380;2023-02-12T02:58:55;95306.06;;;-0.23;51.39
39301;BME280;25019;42.626;23.380;2023-02-12T03:04:28;95291.22;;;-0.22;52.61
39301;BME280;25019;42.626;23.380;2023-02-12T03:10:10;95311.75;;;-0.27;52.35
39301;BME280;25019;42.626;23.380;2023-02-12T03:12:50;95307.03;;;-0.24;52.91
39301;BME280;25019;42.626;23.380;2023-02-12T03:15:42;95316.03;;;-0.18;53.18
39301;BME280;25019;42.626;23.380;2023-02-12T03:18:41;95290.69;;;-0.34;52.41
39301;BME280;25019;42.626;23.380;2023-02-12T03:21:12;95299.06;;;-0.22;53.13
39301;BME280;25019;42.626;23.380;2023-02-12T03:23:47;95292.53;;;-0.18;52.54
39301;BME280;25019;42.626;23.380;2023-02-12T03:26:20;95298.41;;;-0.16;53.40
39301;BME280;25019;42.626;23.380;2023-02-12T03:28:47;95305.09;;;-0.13;53.44
39301;BME280;25019;42.626;23.380;2023-02-12T03:31:27;95294.97;;;-0.17;53.11
39301;BME280;25019;42.626;23.380;2023-02-12T03:42:09;95285.81;;;-0.21;53.97
39301;BME280;25019;42.626;23.380;2023-02-12T03:47:23;95275.25;;;-0.19;53.67
39301;BME280;25019;42.626;23.380;2023-02-12T03:50:02;95287.97;;;-0.16;54.15
39301;BME280;25019;42.626;23.380;2023-02-12T03:52:31;95261.84;;;-0.24;54.25
39301;BME280;25019;42.626;23.380;2023-02-12T03:54:58;95203.13;;;-0.71;54.06
39301;BME280;25019;42.626;23.380;2023-02-12T03:57:30;95285.38;;;-0.16;54.75
39301;BME280;25019;42.626;23.380;2023-02-12T04:00:09;95218.53;;;-0.60;54.72
39301;BME280;25019;42.626;23.380;2023-02-12T04:02:41;95276.22;;;-0.20;54.94
39301;BME280;25019;42.626;23.380;2023-02-12T04:05:15;95265.25;;;-0.32;54.96
39301;BME280;25019;42.626;23.380;2023-02-12T04:07:41;95282.94;;;-0.09;54.46
39301;BME280;25019;42.626;23.380;2023-02-12T04:10:07;95227.19;;;-0.51;54.56
39301;BME280;25019;42.626;23.380;2023-02-12T04:12:39;95214.09;;;-0.59;55.54
39301;BME280;25019;42.626;23.380;2023-02-12T04:20:40;95289.63;;;-0.07;55.42
39301;BME280;25019;42.626;23.380;2023-02-12T04:28:35;95298.22;;;-0.23;56.13
39301;BME280;25019;42.626;23.380;2023-02-12T04:31:10;95313.75;;;-0.21;55.98
39301;BME280;25019;42.626;23.380;2023-02-12T04:33:43;95302.00;;;-0.17;56.75
39301;BME280;25019;42.626;23.380;2023-02-12T04:36:20;95308.22;;;-0.18;56.63
39301;BME280;25019;42.626;23.380;2023-02-12T04:38:58;95228.56;;;-0.73;56.33
39301;BME280;25019;42.626;23.380;2023-02-12T04:41:26;95320.28;;;-0.17;57.38
39301;BME280;25019;42.626;23.380;2023-02-12T04:43:52;95250.22;;;-0.81;59.50
39301;BME280;25019;42.626;23.380;2023-02-12T04:46:17;95308.75;;;-0.49;59.97
39301;BME280;25019;42.626;23.380;2023-02-12T04:48:53;95317.28;;;-0.31;60.15
39301;BME280;25019;42.626;23.380;2023-02-12T04:51:18;95326.28;;;-0.33;60.54
39301;BME280;25019;42.626;23.380;2023-02-12T04:53:45;95330.50;;;-0.32;60.71
39301;BME280;25019;42.626;23.380;2023-02-12T04:56:11;95322.81;;;-0.42;61.07
39301;BME280;25019;42.626;23.380;2023-02-12T04:58:38;95327.03;;;-0.41;61.58
39301;BME280;25019;42.626;23.380;2023-02-12T05:01:04;95328.97;;;-0.51;62.11
39301;BME280;25019;42.626;23.380;2023-02-12T05:03:30;95297.25;;;-0.65;61.28
39301;BME280;25019;42.626;23.380;2023-02-12T05:06:07;95325.44;;;-0.42;61.55
39301;BME280;25019;42.626;23.380;2023-02-12T05:08:33;95329.16;;;-0.44;60.95
39301;BME280;25019;42.626;23.380;2023-02-12T05:11:04;95317.19;;;-0.55;61.35
39301;BME280;25019;42.626;23.380;2023-02-12T05:13:30;95282.66;;;-0.84;61.09
39301;BME280;25019;42.626;23.380;2023-02-12T05:15:55;95229.50;;;-1.17;60.20
39301;BME280;25019;42.626;23.380;2023-02-12T05:18:21;95296.75;;;-0.68;61.08
39301;BME280;25019;42.626;23.380;2023-02-12T05:20:57;95210.34;;;-1.34;60.63
39301;BME280;25019;42.626;23.380;2023-02-12T05:23:28;95320.94;;;-0.58;59.91
39301;BME280;25019;42.626;23.380;2023-02-12T05:25:57;95312.22;;;-0.75;58.50
39301;BME280;25019;42.626;23.380;2023-02-12T05:28:23;95326.25;;;-0.68;57.21
39301;BME280;25019;42.626;23.380;2023-02-12T05:30:48;95342.81;;;-0.51;57.41
39301;BME280;25019;42.626;23.380;2023-02-12T05:33:14;95331.69;;;-0.61;59.47
39301;BME280;25019;42.626;23.380;2023-02-12T05:35:39;95306.53;;;-0.70;61.86
39301;BME280;25019;42.626;23.380;2023-02-12T05:38:05;95345.84;;;-0.64;63.89
39301;BME280;25019;42.626;23.380;2023-02-12T05:40:31;95323.81;;;-0.69;63.22
39301;BME280;25019;42.626;23.380;2023-02-12T05:42:57;95336.84;;;-0.69;62.62
39301;BME280;25019;42.626;23.380;2023-02-12T05:45:26;95348.34;;;-0.54;61.78
39301;BME280;25019;42.626;23.380;2023-02-12T05:47:54;95356.22;;;-0.46;62.08
39301;BME280;25019;42.626;23.380;2023-02-12T05:50:20;95336.06;;;-0.62;62.20
39301;BME280;25019;42.626;23.380;2023-02-12T05:52:59;95355.06;;;-0.51;62.81
39301;BME280;25019;42.626;23.380;2023-02-12T05:55:24;95346.88;;;-0.56;63.07
39301;BME280;25019;42.626;23.380;2023-02-12T05:57:50;95342.06;;;-0.69;64.13
39301;BME280;25019;42.626;23.380;2023-02-12T06:00:16;95282.97;;;-1.13;64.36
39301;BME280;25019;42.626;23.380;2023-02-12T06:02:41;95361.19;;;-0.61;65.13
39301;BME280;25019;42.626;23.380;2023-02-12T06:05:07;95370.00;;;-0.62;65.92
39301;BME280;25019;42.626;23.380;2023-02-12T06:07:33;95367.03;;;-0.67;66.09
39301;BME280;25019;42.626;23.380;2023-02-12T06:09:58;95374.56;;;-0.64;67.84
39301;BME280;25019;42.626;23.380;2023-02-12T06:12:24;95357.63;;;-0.59;69.34
39301;BME280;25019;42.626;23.380;2023-02-12T06:14:51;95375.69;;;-0.66;70.73
39301;BME280;25019;42.626;23.380;2023-02-12T06:17:16;95374.06;;;-0.67;71.72
39301;BME280;25019;42.626;23.380;2023-02-12T06:19:42;95299.47;;;-1.13;72.68
39301;BME280;25019;42.626;23.380;2023-02-12T06:22:07;95365.81;;;-0.81;73.03
39301;BME280;25019;42.626;23.380;2023-02-12T06:24:33;95367.97;;;-0.76;74.26
39301;BME280;25019;42.626;23.380;2023-02-12T06:26:59;95362.88;;;-0.86;75.35
39301;BME280;25019;42.626;23.380;2023-02-12T06:29:24;95367.97;;;-0.76;74.71
39301;BME280;25019;42.626;23.380;2023-02-12T06:31:50;95378.91;;;-0.72;75.62
39301;BME280;25019;42.626;23.380;2023-02-12T06:34:16;95368.53;;;-0.64;75.45
39301;BME280;25019;42.626;23.380;2023-02-12T06:36:44;95376.72;;;-0.59;76.27
39301;BME280;25019;42.626;23.380;2023-02-12T06:39:11;95376.19;;;-0.63;77.05
39301;BME280;25019;42.626;23.380;2023-02-12T06:41:37;95369.97;;;-0.70;79.07
39301;BME280;25019;42.626;23.380;2023-02-12T06:44:04;95380.75;;;-0.65;79.82
39301;BME280;25019;42.626;23.380;2023-02-12T06:46:30;95385.50;;;-0.60;81.01
39301;BME280;25019;42.626;23.380;2023-02-12T06:48:57;95383.22;;;-0.63;82.15
39301;BME280;25019;42.626;23.380;2023-02-12T06:51:27;95388.56;;;-0.65;83.16
39301;BME280;25019;42.626;23.380;2023-02-12T06:53:54;95386.78;;;-0.64;82.58
39301;BME280;25019;42.626;23.380;2023-02-12T06:56:21;95239.88;;;-1.52;82.44
39301;BME280;25019;42.626;23.380;2023-02-12T06:58:51;95395.47;;;-0.55;82.10
39301;BME280;25019;42.626;23.380;2023-02-12T07:01:20;95396.81;;;-0.51;82.46
39301;BME280;25019;42.626;23.380;2023-02-12T07:03:53;95367.31;;;-0.78;82.36
39301;BME280;25019;42.626;23.380;2023-02-12T07:06:19;95401.00;;;-0.58;82.20
39301;BME280;25019;42.626;23.380;2023-02-12T07:08:45;95310.50;;;-1.19;82.35
39301;BME280;25019;42.626;23.380;2023-02-12T07:11:11;95404.69;;;-0.69;82.96
39301;BME280;25019;42.626;23.380;2023-02-12T07:13:39;95388.06;;;-0.68;82.96
39301;BME280;25019;42.626;23.380;2023-02-12T07:16:11;95398.56;;;-0.60;82.64
39301;BME280;25019;42.626;23.380;2023-02-12T07:18:37;95395.47;;;-0.55;82.57
39301;BME280;25019;42.626;23.380;2023-02-12T07:21:05;95405.72;;;-0.62;82.54
39301;BME280;25019;42.626;23.380;2023-02-12T07:23:31;95398.13;;;-0.73;82.87
39301;BME280;25019;42.626;23.380;2023-02-12T07:26:05;95401.41;;;-0.71;83.34
39301;BME280;25019;42.626;23.380;2023-02-12T07:28:32;95379.50;;;-0.79;83.41
39301;BME280;25019;42.626;23.380;2023-02-12T07:31:05;95394.09;;;-0.68;82.97
39301;BME280;25019;42.626;23.380;2023-02-12T07:33:31;95304.41;;;-1.28;83.75
39301;BME280;25019;42.626;23.380;2023-02-12T07:35:59;95401.97;;;-0.59;84.42
39301;BME280;25019;42.626;23.380;2023-02-12T07:38:25;95403.41;;;-0.65;83.72
39301;BME280;25019;42.626;23.380;2023-02-12T07:40:51;95417.13;;;-0.63;84.84
39301;BME280;25019;42.626;23.380;2023-02-12T07:43:16;95419.19;;;-0.75;85.32
39301;BME280;25019;42.626;23.380;2023-02-12T07:45:42;95417.16;;;-0.81;85.85
39301;BME280;25019;42.626;23.380;2023-02-12T07:48:08;95425.47;;;-0.86;86.14
39301;BME280;25019;42.626;23.380;2023-02-12T07:50:33;95417.09;;;-0.89;87.15
39301;BME280;25019;42.626;23.380;2023-02-12T07:52:59;95417.41;;;-0.93;87.83
39301;BME280;25019;42.626;23.380;2023-02-12T07:55:24;95425.47;;;-0.86;87.83
39301;BME280;25019;42.626;23.380;2023-02-12T07:57:50;95424.13;;;-0.90;88.24
39301;BME280;25019;42.626;23.380;2023-02-12T08:00:16;95420.50;;;-0.71;94.37
39301;BME280;25019;42.626;23.380;2023-02-12T08:02:42;95369.97;;;-0.70;90.98
39301;BME280;25019;42.626;23.380;2023-02-12T08:05:07;95423.47;;;-0.05;88.53
39301;BME280;25019;42.626;23.380;2023-02-12T08:07:33;95426.84;;;0.22;86.21
39301;BME280;25019;42.626;23.380;2023-02-12T08:09:59;95430.31;;;0.39;83.91
39301;BME280;25019;42.626;23.380;2023-02-12T08:12:24;95426.59;;;0.50;83.12
39301;BME280;25019;42.626;23.380;2023-02-12T08:14:50;95436.06;;;0.51;82.96
39301;BME280;25019;42.626;23.380;2023-02-12T08:17:15;95446.03;;;0.48;82.35
39301;BME280;25019;42.626;23.380;2023-02-12T08:19:41;95438.00;;;0.41;82.01
39301;BME280;25019;42.626;23.380;2023-02-12T08:22:06;95435.06;;;0.36;83.22
39301;BME280;25019;42.626;23.380;2023-02-12T08:24:32;95380.66;;;-0.12;82.49
39301;BME280;25019;42.626;23.380;2023-02-12T08:26:58;95438.88;;;0.15;83.39
39301;BME280;25019;42.626;23.380;2023-02-12T08:29:26;95428.38;;;-0.02;83.31
39301;BME280;25019;42.626;23.380;2023-02-12T08:32:00;95451.41;;;-0.05;85.22
39301;BME280;25019;42.626;23.380;2023-02-12T08:34:34;95456.25;;;-0.10;85.11
39301;BME280;25019;42.626;23.380;2023-02-12T08:37:00;95460.81;;;-0.12;85.24
39301;BME280;25019;42.626;23.380;2023-02-12T08:39:27;95459.66;;;-0.18;85.35
39301;BME280;25019;42.626;23.380;2023-02-12T08:41:54;95460.16;;;-0.14;85.85
39301;BME280;25019;42.626;23.380;2023-02-12T08:44:20;95381.28;;;-0.53;85.36
39301;BME280;25019;42.626;23.380;2023-02-12T08:46:48;95468.69;;;-0.04;85.91
39301;BME280;25019;42.626;23.380;2023-02-12T08:49:17;95472.59;;;-0.08;85.00
39301;BME280;25019;42.626;23.380;2023-02-12T08:51:46;95476.97;;;-0.17;86.25
39301;BME280;25019;42.626;23.380;2023-02-12T08:54:16;95477.66;;;-0.07;86.31
39301;BME280;25019;42.626;23.380;2023-02-12T08:56:43;95472.66;;;0.00;86.63
39301;BME280;25019;42.626;23.380;2023-02-12T08:59:13;95486.03;;;0.05;86.00
39301;BME280;25019;42.626;23.380;2023-02-12T09:01:40;95486.03;;;0.05;85.58
39301;BME280;25019;42.626;23.380;2023-02-12T09:04:07;95491.00;;;-0.10;85.69
39301;BME280;25019;42.626;23.380;2023-02-12T09:06:35;95489.22;;;-0.09;86.29
39301;BME280;25019;42.626;23.380;2023-02-12T09:09:00;95385.03;;;-0.82;87.42
39301;BME280;25019;42.626;23.380;2023-02-12T09:11:27;95425.88;;;-0.72;87.28
39301;BME280;25019;42.626;23.380;2023-02-12T09:14:00;95493.38;;;-0.25;88.81
39301;BME280;25019;42.626;23.380;2023-02-12T09:16:28;95502.00;;;-0.06;88.41
39301;BME280;25019;42.626;23.380;2023-02-12T09:18:54;95481.22;;;-0.16;87.85
39301;BME280;25019;42.626;23.380;2023-02-12T09:21:20;95406.03;;;-0.65;87.57
39301;BME280;25019;42.626;23.380;2023-02-12T09:23:46;95505.56;;;-0.07;87.65
39301;BME280;25019;42.626;23.380;2023-02-12T09:26:14;95493.59;;;-0.18;88.76
39301;BME280;25019;42.626;23.380;2023-02-12T09:28:41;95500.34;;;-0.07;88.28
39301;BME280;25019;42.626;23.380;2023-02-12T09:31:13;95428.69;;;-0.66;88.47
39301;BME280;25019;42.626;23.380;2023-02-12T09:33:39;95502.19;;;-0.26;90.01
39301;BME280;25019;42.626;23.380;2023-02-12T09:36:14;95501.75;;;-0.21;90.47
39301;BME280;25019;42.626;23.380;2023-02-12T09:38:41;95436.56;;;-0.57;89.22
39301;BME280;25019;42.626;23.380;2023-02-12T09:52:19;95487.72;;;0.14;88.50
39301;BME280;25019;42.626;23.380;2023-02-12T09:54:47;95499.50;;;0.19;87.37
39301;BME280;25019;42.626;23.380;2023-02-12T09:57:22;95507.59;;;0.07;88.98
39301;BME280;25019;42.626;23.380;2023-02-12T10:00:17;95429.34;;;-0.37;88.54
39301;BME280;25019;42.626;23.380;2023-02-12T10:02:41;95497.25;;;0.32;87.53
39301;BME280;25019;42.626;23.380;2023-02-12T10:05:28;95503.53;;;0.48;86.47
39301;BME280;25019;42.626;23.380;2023-02-12T10:08:39;95507.00;;;0.56;85.75
39301;BME280;25019;42.626;23.380;2023-02-12T10:27:51;95521.81;;;0.91;83.67
39301;BME280;25019;42.626;23.380;2023-02-12T10:30:47;95522.63;;;0.99;84.06
39301;BME280;25019;42.626;23.380;2023-02-12T10:33:19;95531.56;;;0.80;83.96
39301;BME280;25019;42.626;23.380;2023-02-12T10:36:25;95525.34;;;0.73;84.77
39301;BME280;25019;42.626;23.380;2023-02-12T10:38:46;95533.22;;;0.81;85.10
39301;BME280;25019;42.626;23.380;2023-02-12T10:41:14;95521.94;;;0.81;85.36
39301;BME280;25019;42.626;23.380;2023-02-12T10:43:41;95473.00;;;0.56;85.37
39301;BME280;25019;42.626;23.380;2023-02-12T10:46:13;95522.97;;;1.13;84.59
39301;BME280;25019;42.626;23.380;2023-02-12T10:48:41;95524.16;;;1.18;83.43
39301;BME280;25019;42.626;23.380;2023-02-12T10:53:38;95524.66;;;1.39;83.00
39301;BME280;25019;42.626;23.380;2023-02-12T10:56:18;95530.53;;;1.49;82.25
39301;BME280;25019;42.626;23.380;2023-02-12T10:58:57;95540.50;;;1.54;82.32
39301;BME280;25019;42.626;23.380;2023-02-12T11:01:32;95528.75;;;1.41;81.87
39301;BME280;25019;42.626;23.380;2023-02-12T11:04:16;95520.72;;;1.26;82.68
39301;BME280;25019;42.626;23.380;2023-02-12T11:07:13;95518.72;;;1.20;82.78
39301;BME280;25019;42.626;23.380;2023-02-12T11:09:41;95516.63;;;1.40;82.33
39301;BME280;25019;42.626;23.380;2023-02-12T11:12:22;95522.53;;;1.51;82.59
39301;BME280;25019;42.626;23.380;2023-02-12T11:14:54;95521.22;;;1.71;80.69
39301;BME280;25019;42.626;23.380;2023-02-12T11:20:19;95516.41;;;2.08;80.22
39301;BME280;25019;42.626;23.380;2023-02-12T11:25:24;95515.72;;;2.14;78.73
39301;BME280;25019;42.626;23.380;2023-02-12T11:28:17;95510.63;;;2.21;79.12
39301;BME280;25019;42.626;23.380;2023-02-12T11:31:36;95513.16;;;2.46;77.08
39301;BME280;25019;42.626;23.380;2023-02-12T11:33:37;95503.00;;;2.43;77.53
39301;BME280;25019;42.626;23.380;2023-02-12T11:36:12;95508.78;;;2.69;75.92
39301;BME280;25019;42.626;23.380;2023-02-12T11:38:56;95505.53;;;2.67;75.64
39301;BME280;25019;42.626;23.380;2023-02-12T11:41:34;95499.25;;;2.77;76.32
39301;BME280;25019;42.626;23.380;2023-02-12T11:44:12;95504.94;;;2.89;75.53
39301;BME280;25019;42.626;23.380;2023-02-12T11:47:10;95514.38;;;3.06;74.00
39301;BME280;25019;42.626;23.380;2023-02-12T11:49:48;95458.59;;;2.73;74.31
39301;BME280;25019;42.626;23.380;2023-02-12T11:52:26;95415.00;;;2.48;73.00
39301;BME280;25019;42.626;23.380;2023-02-12T11:54:59;95520.53;;;3.13;73.77
39301;BME280;25019;42.626;23.380;2023-02-12T12:00:09;95503.97;;;3.13;73.32
39301;BME280;25019;42.626;23.380;2023-02-12T12:02:38;95456.41;;;2.84;73.11
39301;BME280;25019;42.626;23.380;2023-02-12T12:05:12;95512.59;;;3.22;72.87
39301;BME280;25019;42.626;23.380;2023-02-12T12:07:42;95519.84;;;3.20;72.71
39301;BME280;25019;42.626;23.380;2023-02-12T12:10:12;95518.91;;;3.12;72.78
39301;BME280;25019;42.626;23.380;2023-02-12T12:15:15;95501.09;;;2.99;72.82
39301;BME280;25019;42.626;23.380;2023-02-12T12:18:30;95518.53;;;3.15;72.60
39301;BME280;25019;42.626;23.380;2023-02-12T12:21:19;95524.13;;;3.12;72.25
39301;BME280;25019;42.626;23.380;2023-02-12T12:24:00;95533.78;;;3.20;72.57
39301;BME280;25019;42.626;23.380;2023-02-12T12:26:29;95526.00;;;3.04;71.69
39301;BME280;25019;42.626;23.380;2023-02-12T12:31:42;95502.41;;;2.72;73.73
39301;BME280;25019;42.626;23.380;2023-02-12T12:34:15;95513.75;;;2.96;72.46
39301;BME280;25019;42.626;23.380;2023-02-12T12:37:39;95530.56;;;3.10;72.28
39301;BME280;25019;42.626;23.380;2023-02-12T12:51:16;95544.53;;;3.57;70.37
39301;BME280;25019;42.626;23.380;2023-02-12T12:56:48;95551.47;;;3.50;70.40
39301;BME280;25019;42.626;23.380;2023-02-12T12:59:27;95550.72;;;3.41;70.30
39301;BME280;25019;42.626;23.380;2023-02-12T13:10:35;95548.72;;;3.20;71.10
39301;BME280;25019;42.626;23.380;2023-02-12T13:13:19;95546.88;;;2.97;71.90
39301;BME280;25019;42.626;23.380;2023-02-12T13:19:00;95556.06;;;3.01;71.93
39301;BME280;25019;42.626;23.380;2023-02-12T13:27:16;95557.63;;;2.79;72.67
39301;BME280;25019;42.626;23.380;2023-02-12T13:29:47;95548.16;;;2.69;73.30
39301;BME280;25019;42.626;23.380;2023-02-12T13:32:22;95553.38;;;2.69;73.65
39301;BME280;25019;42.626;23.380;2023-02-12T13:34:49;95562.13;;;2.62;74.00
39301;BME280;25019;42.626;23.380;2023-02-12T13:37:23;95564.63;;;2.47;74.91
39301;BME280;25019;42.626;23.380;2023-02-12T13:39:50;95564.81;;;2.45;74.46
39301;BME280;25019;42.626;23.380;2023-02-12T13:50:30;95566.00;;;2.18;76.95
39301;BME280;25019;42.626;23.380;2023-02-12T13:53:49;95577.97;;;2.20;77.29
39301;BME280;25019;42.626;23.380;2023-02-12T13:56:03;95571.09;;;2.19;78.34
39301;BME280;25019;42.626;23.380;2023-02-12T14:01:01;95571.25;;;2.18;77.89
39301;BME280;25019;42.626;23.380;2023-02-12T14:03:29;95581.59;;;2.11;78.00
39301;BME280;25019;42.626;23.380;2023-02-12T14:06:15;95577.84;;;2.05;78.87
39301;BME280;25019;42.626;23.380;2023-02-12T14:08:53;95586.81;;;2.03;78.65
39301;BME280;25019;42.626;23.380;2023-02-12T14:11:32;95595.69;;;1.93;79.41
39301;BME280;25019;42.626;23.380;2023-02-12T14:14:00;95592.88;;;1.87;80.01
39301;BME280;25019;42.626;23.380;2023-02-12T14:21:58;95588.16;;;1.82;80.81
39301;BME280;25019;42.626;23.380;2023-02-12T14:24:50;95603.22;;;1.80;80.96
39301;BME280;25019;42.626;23.380;2023-02-12T14:27:21;95600.44;;;1.73;81.48
39301;BME280;25019;42.626;23.380;2023-02-12T14:30:20;95607.13;;;1.68;81.56
39301;BME280;25019;42.626;23.380;2023-02-12T14:40:44;95633.16;;;1.69;81.89
39301;BME280;25019;42.626;23.380;2023-02-12T14:45:57;95643.47;;;1.62;82.88
39301;BME280;25019;42.626;23.380;2023-02-12T14:48:56;95622.53;;;1.62;83.39
39301;BME280;25019;42.626;23.380;2023-02-12T14:51:32;95648.91;;;1.77;83.16
39301;BME280;25019;42.626;23.380;2023-02-12T14:54:01;95543.28;;;1.11;82.91
39301;BME280;25019;42.626;23.380;2023-02-12T14:56:32;95644.31;;;1.71;82.56
39301;BME280;25019;42.626;23.380;2023-02-12T14:59:02;95653.78;;;1.64;82.98
39301;BME280;25019;42.626;23.380;2023-02-12T15:01:32;95661.81;;;1.71;82.92
39301;BME280;25019;42.626;23.380;2023-02-12T15:04:08;95656.09;;;1.67;81.99
39301;BME280;25019;42.626;23.380;2023-02-12T15:06:40;95662.81;;;1.78;82.06
39301;BME280;25019;42.626;23.380;2023-02-12T15:09:10;95568.59;;;1.10;83.03
39301;BME280;25019;42.626;23.380;2023-02-12T15:11:47;95674.13;;;1.78;82.49
39301;BME280;25019;42.626;23.380;2023-02-12T15:14:23;95678.88;;;1.83;82.59
39301;BME280;25019;42.626;23.380;2023-02-12T15:16:53;95695.25;;;1.85;82.50
39301;BME280;25019;42.626;23.380;2023-02-12T15:22:29;95609.34;;;1.21;82.43
39301;BME280;25019;42.626;23.380;2023-02-12T15:25:24;95711.28;;;1.82;82.69
39301;BME280;25019;42.626;23.380;2023-02-12T15:28:03;95712.75;;;1.85;81.92
39301;BME280;25019;42.626;23.380;2023-02-12T15:30:34;95717.66;;;1.79;82.48
39301;BME280;25019;42.626;23.380;2023-02-12T15:33:03;95722.06;;;1.71;82.33
39301;BME280;25019;42.626;23.380;2023-02-12T15:35:32;95720.41;;;1.70;82.48
39301;BME280;25019;42.626;23.380;2023-02-12T15:37:58;95735.81;;;1.64;82.36
39301;BME280;25019;42.626;23.380;2023-02-12T15:40:29;95736.63;;;1.65;82.45